sensor_id;sensor_type;location;lat;lon;timestamp;P1;durP1;ratioP1;P2;durP2;ratioP2
73515;SDS011;61763;51.416;5.442;2023-03-15T00:00:17;3.55;;;1.25;;
73515;SDS011;61763;51.416;5.442;2023-03-15T00:02:44;5.55;;;1.02;;
73515;SDS011;61763;51.416;5.442;2023-03-15T00:05:10;3.47;;;0.63;;
73515;SDS011;61763;51.416;5.442;2023-03-15T00:07:37;8.65;;;0.90;;
73515;SDS011;61763;51.416;5.442;2023-03-15T00:10:04;5.88;;;1.20;;
73515;SDS011;61763;51.416;5.442;2023-03-15T00:12:30;6.40;;;1.33;;
73515;SDS011;61763;51.416;5.442;2023-03-15T00:14:56;3.97;;;0.98;;
73515;SDS011;61763;51.416;5.442;2023-03-15T00:17:21;2.78;;;0.70;;
73515;SDS011;61763;51.416;5.442;2023-03-15T00:19:47;5.00;;;1.20;;
73515;SDS011;61763;51.416;5.442;2023-03-15T00:22:13;3.45;;;1.10;;
73515;SDS011;61763;51.416;5.442;2023-03-15T00:24:38;5.43;;;2.15;;
73515;SDS011;61763;51.416;5.442;2023-03-15T00:27:04;4.07;;;1.98;;
73515;SDS011;61763;51.416;5.442;2023-03-15T00:29:30;4.38;;;1.40;;
73515;SDS011;61763;51.416;5.442;2023-03-15T00:31:56;3.70;;;1.88;;
73515;SDS011;61763;51.416;5.442;2023-03-15T00:34:22;5.90;;;0.90;;
73515;SDS011;61763;51.416;5.442;2023-03-15T00:39:17;8.40;;;0.93;;
73515;SDS011;61763;51.416;5.442;2023-03-15T00:41:46;5.93;;;0.90;;
73515;SDS011;61763;51.416;5.442;2023-03-15T00:44:11;6.72;;;1.25;;
73515;SDS011;61763;51.416;5.442;2023-03-15T00:46:37;7.18;;;2.35;;
73515;SDS011;61763;51.416;5.442;2023-03-15T00:49:02;10.02;;;2.00;;
73515;SDS011;61763;51.416;5.442;2023-03-15T00:51:28;7.35;;;2.38;;
73515;SDS011;61763;51.416;5.442;2023-03-15T00:53:54;10.43;;;2.70;;
73515;SDS011;61763;51.416;5.442;2023-03-15T00:56:20;7.45;;;2.58;;
73515;SDS011;61763;51.416;5.442;2023-03-15T00:58:48;13.23;;;4.05;;
73515;SDS011;61763;51.416;5.442;2023-03-15T01:01:18;11.95;;;4.40;;
73515;SDS011;61763;51.416;5.442;2023-03-15T01:03:46;14.73;;;5.03;;
73515;SDS011;61763;51.416;5.442;2023-03-15T01:06:12;14.25;;;6.13;;
73515;SDS011;61763;51.416;5.442;2023-03-15T01:08:39;15.90;;;4.20;;
73515;SDS011;61763;51.416;5.442;2023-03-15T01:11:06;10.20;;;3.92;;
73515;SDS011;61763;51.416;5.442;2023-03-15T01:13:34;11.43;;;6.53;;
73515;SDS011;61763;51.416;5.442;2023-03-15T01:16:00;13.70;;;6.50;;
73515;SDS011;61763;51.416;5.442;2023-03-15T01:18:25;15.60;;;4.68;;
73515;SDS011;61763;51.416;5.442;2023-03-15T01:20:50;10.93;;;4.43;;
73515;SDS011;61763;51.416;5.442;2023-03-15T01:23:16;6.32;;;2.25;;
73515;SDS011;61763;51.416;5.442;2023-03-15T01:25:41;8.98;;;5.13;;
73515;SDS011;61763;51.416;5.442;2023-03-15T01:28:06;10.85;;;5.97;;
73515;SDS011;61763;51.416;5.442;2023-03-15T01:30:32;6.40;;;3.00;;
73515;SDS011;61763;51.416;5.442;2023-03-15T01:32:58;8.10;;;3.08;;
73515;SDS011;61763;51.416;5.442;2023-03-15T01:35:23;7.85;;;4.60;;
73515;SDS011;61763;51.416;5.442;2023-03-15T01:37:49;10.10;;;4.57;;
73515;SDS011;61763;51.416;5.442;2023-03-15T01:40:15;10.40;;;4.40;;
73515;SDS011;61763;51.416;5.442;2023-03-15T01:42:51;9.80;;;3.80;;
73515;SDS011;61763;51.416;5.442;2023-03-15T01:48:40;8.50;;;4.57;;
73515;SDS011;61763;51.416;5.442;2023-03-15T01:51:12;6.00;;;2.80;;
73515;SDS011;61763;51.416;5.442;2023-03-15T01:53:47;10.73;;;4.90;;
73515;SDS011;61763;51.416;5.442;2023-03-15T01:56:18;8.98;;;4.35;;
73515;SDS011;61763;51.416;5.442;2023-03-15T01:58:44;12.02;;;4.70;;
73515;SDS011;61763;51.416;5.442;2023-03-15T02:01:11;8.63;;;4.22;;
73515;SDS011;61763;51.416;5.442;2023-03-15T02:03:40;8.15;;;4.70;;
73515;SDS011;61763;51.416;5.442;2023-03-15T02:06:11;8.85;;;3.25;;
73515;SDS011;61763;51.416;5.442;2023-03-15T02:08:42;7.22;;;4.22;;
73515;SDS011;61763;51.416;5.442;2023-03-15T02:11:14;9.95;;;4.20;;
73515;SDS011;61763;51.416;5.442;2023-03-15T02:13:43;8.45;;;3.60;;
73515;SDS011;61763;51.416;5.442;2023-03-15T02:16:09;12.82;;;3.78;;
73515;SDS011;61763;51.416;5.442;2023-03-15T02:18:34;9.48;;;4.18;;
73515;SDS011;61763;51.416;5.442;2023-03-15T02:23:53;10.25;;;5.32;;
73515;SDS011;61763;51.416;5.442;2023-03-15T02:26:34;8.13;;;3.85;;
73515;SDS011;61763;51.416;5.442;2023-03-15T02:29:10;12.80;;;4.70;;
73515;SDS011;61763;51.416;5.442;2023-03-15T02:31:36;7.03;;;1.95;;
73515;SDS011;61763;51.416;5.442;2023-03-15T02:34:02;10.88;;;4.05;;
73515;SDS011;61763;51.416;5.442;2023-03-15T02:38:57;9.23;;;5.00;;
73515;SDS011;61763;51.416;5.442;2023-03-15T02:44:07;9.25;;;3.58;;
73515;SDS011;61763;51.416;5.442;2023-03-15T02:49:04;7.53;;;3.45;;
73515;SDS011;61763;51.416;5.442;2023-03-15T02:53:57;8.77;;;3.30;;
73515;SDS011;61763;51.416;5.442;2023-03-15T02:56:22;8.18;;;2.65;;
73515;SDS011;61763;51.416;5.442;2023-03-15T02:58:48;9.18;;;4.78;;
73515;SDS011;61763;51.416;5.442;2023-03-15T03:01:15;8.55;;;3.10;;
73515;SDS011;61763;51.416;5.442;2023-03-15T03:03:42;8.95;;;3.63;;
73515;SDS011;61763;51.416;5.442;2023-03-15T03:06:10;9.52;;;2.65;;
73515;SDS011;61763;51.416;5.442;2023-03-15T03:08:37;7.30;;;3.10;;
73515;SDS011;61763;51.416;5.442;2023-03-15T03:11:03;8.00;;;3.80;;
73515;SDS011;61763;51.416;5.442;2023-03-15T03:13:29;12.95;;;3.70;;
73515;SDS011;61763;51.416;5.442;2023-03-15T03:15:54;8.68;;;4.47;;
73515;SDS011;61763;51.416;5.442;2023-03-15T03:18:29;8.57;;;4.15;;
73515;SDS011;61763;51.416;5.442;2023-03-15T03:20:56;8.48;;;3.65;;
73515;SDS011;61763;51.416;5.442;2023-03-15T03:23:23;9.82;;;4.30;;
73515;SDS011;61763;51.416;5.442;2023-03-15T03:25:52;7.57;;;3.25;;
73515;SDS011;61763;51.416;5.442;2023-03-15T03:28:23;11.23;;;3.80;;
73515;SDS011;61763;51.416;5.442;2023-03-15T03:30:51;10.32;;;3.53;;
73515;SDS011;61763;51.416;5.442;2023-03-15T03:33:18;9.35;;;3.40;;
73515;SDS011;61763;51.416;5.442;2023-03-15T03:35:43;10.35;;;3.08;;
73515;SDS011;61763;51.416;5.442;2023-03-15T03:38:10;7.88;;;3.58;;
73515;SDS011;61763;51.416;5.442;2023-03-15T03:40:36;10.48;;;3.50;;
73515;SDS011;61763;51.416;5.442;2023-03-15T03:43:03;8.02;;;2.83;;
73515;SDS011;61763;51.416;5.442;2023-03-15T03:45:30;8.48;;;2.20;;
73515;SDS011;61763;51.416;5.442;2023-03-15T03:47:55;6.05;;;2.63;;
73515;SDS011;61763;51.416;5.442;2023-03-15T03:50:21;7.00;;;3.45;;
73515;SDS011;61763;51.416;5.442;2023-03-15T03:52:46;6.35;;;3.08;;
73515;SDS011;61763;51.416;5.442;2023-03-15T03:55:11;8.27;;;2.72;;
73515;SDS011;61763;51.416;5.442;2023-03-15T03:57:40;11.07;;;4.22;;
73515;SDS011;61763;51.416;5.442;2023-03-15T04:00:07;7.13;;;2.80;;
73515;SDS011;61763;51.416;5.442;2023-03-15T04:02:34;9.70;;;3.28;;
73515;SDS011;61763;51.416;5.442;2023-03-15T04:05:00;9.73;;;2.97;;
73515;SDS011;61763;51.416;5.442;2023-03-15T04:07:25;8.63;;;2.83;;
73515;SDS011;61763;51.416;5.442;2023-03-15T04:09:51;10.00;;;3.25;;
73515;SDS011;61763;51.416;5.442;2023-03-15T04:12:17;7.43;;;3.30;;
73515;SDS011;61763;51.416;5.442;2023-03-15T04:14:42;9.32;;;4.55;;
73515;SDS011;61763;51.416;5.442;2023-03-15T04:17:08;11.50;;;4.03;;
73515;SDS011;61763;51.416;5.442;2023-03-15T04:19:33;12.40;;;3.90;;
73515;SDS011;61763;51.416;5.442;2023-03-15T04:21:59;10.85;;;4.00;;
73515;SDS011;61763;51.416;5.442;2023-03-15T04:24:35;11.40;;;3.70;;
73515;SDS011;61763;51.416;5.442;2023-03-15T04:27:00;10.52;;;4.43;;
73515;SDS011;61763;51.416;5.442;2023-03-15T04:29:27;15.35;;;4.78;;
73515;SDS011;61763;51.416;5.442;2023-03-15T04:31:53;14.07;;;4.97;;
73515;SDS011;61763;51.416;5.442;2023-03-15T04:34:28;12.20;;;3.67;;
73515;SDS011;61763;51.416;5.442;2023-03-15T04:36:55;12.93;;;4.65;;
73515;SDS011;61763;51.416;5.442;2023-03-15T04:39:21;13.48;;;5.38;;
73515;SDS011;61763;51.416;5.442;2023-03-15T04:41:47;15.70;;;5.13;;
73515;SDS011;61763;51.416;5.442;2023-03-15T04:44:18;16.52;;;5.20;;
73515;SDS011;61763;51.416;5.442;2023-03-15T04:46:44;10.65;;;4.13;;
73515;SDS011;61763;51.416;5.442;2023-03-15T04:49:09;12.38;;;4.63;;
73515;SDS011;61763;51.416;5.442;2023-03-15T04:51:35;17.25;;;5.38;;
73515;SDS011;61763;51.416;5.442;2023-03-15T04:54:00;13.60;;;5.10;;
73515;SDS011;61763;51.416;5.442;2023-03-15T04:56:27;12.75;;;5.32;;
73515;SDS011;61763;51.416;5.442;2023-03-15T04:58:53;13.35;;;4.70;;
73515;SDS011;61763;51.416;5.442;2023-03-15T05:01:18;17.98;;;5.60;;
73515;SDS011;61763;51.416;5.442;2023-03-15T05:03:53;17.95;;;6.15;;
73515;SDS011;61763;51.416;5.442;2023-03-15T05:06:18;15.53;;;6.63;;
73515;SDS011;61763;51.416;5.442;2023-03-15T05:08:44;13.82;;;6.40;;
73515;SDS011;61763;51.416;5.442;2023-03-15T05:11:10;16.80;;;5.43;;
73515;SDS011;61763;51.416;5.442;2023-03-15T05:13:36;14.75;;;5.45;;
73515;SDS011;61763;51.416;5.442;2023-03-15T05:16:02;15.55;;;4.95;;
73515;SDS011;61763;51.416;5.442;2023-03-15T05:18:28;17.10;;;6.95;;
73515;SDS011;61763;51.416;5.442;2023-03-15T05:20:53;15.73;;;6.30;;
73515;SDS011;61763;51.416;5.442;2023-03-15T05:23:20;14.00;;;4.97;;
73515;SDS011;61763;51.416;5.442;2023-03-15T05:25:54;17.85;;;5.68;;
73515;SDS011;61763;51.416;5.442;2023-03-15T05:28:23;12.52;;;4.88;;
73515;SDS011;61763;51.416;5.442;2023-03-15T05:30:49;17.23;;;4.90;;
73515;SDS011;61763;51.416;5.442;2023-03-15T05:33:17;16.35;;;6.10;;
73515;SDS011;61763;51.416;5.442;2023-03-15T05:35:44;15.63;;;5.57;;
73515;SDS011;61763;51.416;5.442;2023-03-15T05:38:10;17.25;;;5.68;;
73515;SDS011;61763;51.416;5.442;2023-03-15T05:40:47;14.27;;;4.72;;
73515;SDS011;61763;51.416;5.442;2023-03-15T05:45:38;12.23;;;4.93;;
73515;SDS011;61763;51.416;5.442;2023-03-15T05:48:05;15.55;;;4.97;;
73515;SDS011;61763;51.416;5.442;2023-03-15T05:50:31;16.98;;;5.30;;
73515;SDS011;61763;51.416;5.442;2023-03-15T05:52:57;14.88;;;5.15;;
73515;SDS011;61763;51.416;5.442;2023-03-15T05:55:23;17.23;;;6.10;;
73515;SDS011;61763;51.416;5.442;2023-03-15T05:57:49;22.00;;;9.10;;
73515;SDS011;61763;51.416;5.442;2023-03-15T06:00:15;22.50;;;7.57;;
73515;SDS011;61763;51.416;5.442;2023-03-15T06:02:43;20.88;;;6.88;;
73515;SDS011;61763;51.416;5.442;2023-03-15T06:05:09;27.27;;;11.18;;
73515;SDS011;61763;51.416;5.442;2023-03-15T06:07:34;23.42;;;8.63;;
73515;SDS011;61763;51.416;5.442;2023-03-15T06:10:00;24.58;;;7.80;;
73515;SDS011;61763;51.416;5.442;2023-03-15T06:12:25;22.00;;;7.10;;
73515;SDS011;61763;51.416;5.442;2023-03-15T06:14:51;16.40;;;6.47;;
73515;SDS011;61763;51.416;5.442;2023-03-15T06:17:16;17.30;;;5.80;;
73515;SDS011;61763;51.416;5.442;2023-03-15T06:19:41;24.10;;;7.28;;
73515;SDS011;61763;51.416;5.442;2023-03-15T06:22:07;23.00;;;8.63;;
73515;SDS011;61763;51.416;5.442;2023-03-15T06:24:33;27.95;;;8.90;;
73515;SDS011;61763;51.416;5.442;2023-03-15T06:26:58;24.85;;;7.53;;
73515;SDS011;61763;51.416;5.442;2023-03-15T06:29:26;21.45;;;7.80;;
73515;SDS011;61763;51.416;5.442;2023-03-15T06:31:51;20.80;;;6.57;;
73515;SDS011;61763;51.416;5.442;2023-03-15T06:34:18;26.58;;;9.40;;
73515;SDS011;61763;51.416;5.442;2023-03-15T06:36:45;26.08;;;8.07;;
73515;SDS011;61763;51.416;5.442;2023-03-15T06:39:11;28.77;;;8.32;;
73515;SDS011;61763;51.416;5.442;2023-03-15T06:41:37;28.98;;;7.85;;
73515;SDS011;61763;51.416;5.442;2023-03-15T06:44:03;28.42;;;10.18;;
73515;SDS011;61763;51.416;5.442;2023-03-15T06:46:29;30.25;;;8.40;;
73515;SDS011;61763;51.416;5.442;2023-03-15T06:48:54;30.30;;;8.73;;
73515;SDS011;61763;51.416;5.442;2023-03-15T06:51:21;28.92;;;9.73;;
73515;SDS011;61763;51.416;5.442;2023-03-15T06:53:47;30.08;;;10.95;;
73515;SDS011;61763;51.416;5.442;2023-03-15T06:56:12;28.85;;;10.23;;
73515;SDS011;61763;51.416;5.442;2023-03-15T06:58:38;30.98;;;9.30;;
73515;SDS011;61763;51.416;5.442;2023-03-15T07:01:03;29.60;;;10.25;;
73515;SDS011;61763;51.416;5.442;2023-03-15T07:03:29;27.10;;;9.18;;
73515;SDS011;61763;51.416;5.442;2023-03-15T07:05:54;31.52;;;10.25;;
73515;SDS011;61763;51.416;5.442;2023-03-15T07:08:20;28.85;;;9.60;;
73515;SDS011;61763;51.416;5.442;2023-03-15T07:10:47;30.58;;;9.10;;
73515;SDS011;61763;51.416;5.442;2023-03-15T07:13:13;26.38;;;9.57;;
73515;SDS011;61763;51.416;5.442;2023-03-15T07:15:39;25.35;;;8.65;;
73515;SDS011;61763;51.416;5.442;2023-03-15T07:18:04;25.48;;;8.90;;
73515;SDS011;61763;51.416;5.442;2023-03-15T07:20:30;24.38;;;8.63;;
73515;SDS011;61763;51.416;5.442;2023-03-15T07:22:56;29.73;;;10.02;;
73515;SDS011;61763;51.416;5.442;2023-03-15T07:25:21;21.63;;;7.90;;
73515;SDS011;61763;51.416;5.442;2023-03-15T07:27:51;25.33;;;10.38;;
73515;SDS011;61763;51.416;5.442;2023-03-15T07:30:18;22.42;;;8.73;;
73515;SDS011;61763;51.416;5.442;2023-03-15T07:32:44;25.38;;;9.38;;
73515;SDS011;61763;51.416;5.442;2023-03-15T07:35:10;21.50;;;6.13;;
73515;SDS011;61763;51.416;5.442;2023-03-15T07:37:36;26.50;;;8.90;;
73515;SDS011;61763;51.416;5.442;2023-03-15T07:40:02;25.20;;;8.60;;
73515;SDS011;61763;51.416;5.442;2023-03-15T07:42:33;20.95;;;8.93;;
73515;SDS011;61763;51.416;5.442;2023-03-15T07:45:03;21.08;;;8.77;;
73515;SDS011;61763;51.416;5.442;2023-03-15T07:47:30;22.40;;;9.90;;
73515;SDS011;61763;51.416;5.442;2023-03-15T07:49:57;22.17;;;8.38;;
73515;SDS011;61763;51.416;5.442;2023-03-15T07:52:23;22.13;;;8.90;;
73515;SDS011;61763;51.416;5.442;2023-03-15T07:54:49;18.70;;;6.32;;
73515;SDS011;61763;51.416;5.442;2023-03-15T07:57:15;23.02;;;7.68;;
73515;SDS011;61763;51.416;5.442;2023-03-15T07:59:40;18.60;;;6.78;;
73515;SDS011;61763;51.416;5.442;2023-03-15T08:02:05;16.27;;;6.47;;
73515;SDS011;61763;51.416;5.442;2023-03-15T08:04:31;17.48;;;7.63;;
73515;SDS011;61763;51.416;5.442;2023-03-15T08:06:56;20.90;;;7.68;;
73515;SDS011;61763;51.416;5.442;2023-03-15T08:09:22;19.15;;;8.38;;
73515;SDS011;61763;51.416;5.442;2023-03-15T08:11:48;15.32;;;5.60;;
73515;SDS011;61763;51.416;5.442;2023-03-15T08:14:14;16.92;;;6.50;;
73515;SDS011;61763;51.416;5.442;2023-03-15T08:16:40;14.90;;;5.93;;
73515;SDS011;61763;51.416;5.442;2023-03-15T08:19:05;19.90;;;7.80;;
73515;SDS011;61763;51.416;5.442;2023-03-15T08:21:31;18.58;;;8.98;;
73515;SDS011;61763;51.416;5.442;2023-03-15T08:23:59;17.98;;;8.05;;
73515;SDS011;61763;51.416;5.442;2023-03-15T08:26:25;14.77;;;6.72;;
73515;SDS011;61763;51.416;5.442;2023-03-15T08:28:51;12.57;;;5.75;;
73515;SDS011;61763;51.416;5.442;2023-03-15T08:31:16;12.75;;;5.80;;
73515;SDS011;61763;51.416;5.442;2023-03-15T08:33:42;12.73;;;4.57;;
73515;SDS011;61763;51.416;5.442;2023-03-15T08:36:07;13.90;;;4.93;;
73515;SDS011;61763;51.416;5.442;2023-03-15T08:38:33;13.32;;;6.50;;
73515;SDS011;61763;51.416;5.442;2023-03-15T08:40:59;14.55;;;3.75;;
73515;SDS011;61763;51.416;5.442;2023-03-15T08:43:24;13.25;;;4.50;;
73515;SDS011;61763;51.416;5.442;2023-03-15T08:45:50;14.27;;;4.70;;
73515;SDS011;61763;51.416;5.442;2023-03-15T08:48:17;15.75;;;7.68;;
73515;SDS011;61763;51.416;5.442;2023-03-15T08:50:43;11.23;;;4.57;;
73515;SDS011;61763;51.416;5.442;2023-03-15T08:53:11;8.50;;;3.50;;
73515;SDS011;61763;51.416;5.442;2023-03-15T08:55:38;11.98;;;4.38;;
73515;SDS011;61763;51.416;5.442;2023-03-15T08:58:03;9.25;;;4.78;;
73515;SDS011;61763;51.416;5.442;2023-03-15T09:00:29;7.57;;;3.55;;
73515;SDS011;61763;51.416;5.442;2023-03-15T09:02:55;11.57;;;5.25;;
73515;SDS011;61763;51.416;5.442;2023-03-15T09:05:21;11.25;;;3.78;;
73515;SDS011;61763;51.416;5.442;2023-03-15T09:07:47;11.15;;;4.25;;
73515;SDS011;61763;51.416;5.442;2023-03-15T09:10:14;9.32;;;4.07;;
73515;SDS011;61763;51.416;5.442;2023-03-15T09:12:41;11.43;;;4.13;;
73515;SDS011;61763;51.416;5.442;2023-03-15T09:15:08;11.32;;;3.75;;
73515;SDS011;61763;51.416;5.442;2023-03-15T09:17:34;8.00;;;2.60;;
73515;SDS011;61763;51.416;5.442;2023-03-15T09:19:59;6.72;;;2.05;;
73515;SDS011;61763;51.416;5.442;2023-03-15T09:22:24;6.97;;;3.90;;
73515;SDS011;61763;51.416;5.442;2023-03-15T09:24:51;7.00;;;3.20;;
73515;SDS011;61763;51.416;5.442;2023-03-15T09:27:17;6.55;;;2.42;;
73515;SDS011;61763;51.416;5.442;2023-03-15T09:29:42;9.32;;;1.70;;
73515;SDS011;61763;51.416;5.442;2023-03-15T09:32:08;4.20;;;1.73;;
73515;SDS011;61763;51.416;5.442;2023-03-15T09:34:34;3.67;;;2.03;;
73515;SDS011;61763;51.416;5.442;2023-03-15T09:36:59;4.85;;;1.50;;
73515;SDS011;61763;51.416;5.442;2023-03-15T09:41:55;5.72;;;2.55;;
73515;SDS011;61763;51.416;5.442;2023-03-15T09:50:02;5.80;;;2.63;;
73515;SDS011;61763;51.416;5.442;2023-03-15T09:55:06;5.22;;;2.58;;
73515;SDS011;61763;51.416;5.442;2023-03-15T09:57:52;4.20;;;1.05;;
73515;SDS011;61763;51.416;5.442;2023-03-15T10:00:29;7.05;;;1.90;;
73515;SDS011;61763;51.416;5.442;2023-03-15T10:03:05;4.25;;;2.30;;
73515;SDS011;61763;51.416;5.442;2023-03-15T10:05:42;4.63;;;2.03;;
73515;SDS011;61763;51.416;5.442;2023-03-15T10:08:13;7.55;;;1.60;;
73515;SDS011;61763;51.416;5.442;2023-03-15T10:11:03;6.63;;;0.88;;
73515;SDS011;61763;51.416;5.442;2023-03-15T10:16:41;2.70;;;0.52;;
73515;SDS011;61763;51.416;5.442;2023-03-15T10:21:57;5.00;;;0.50;;
73515;SDS011;61763;51.416;5.442;2023-03-15T10:24:44;5.53;;;0.63;;
73515;SDS011;61763;51.416;5.442;2023-03-15T10:27:17;4.07;;;1.02;;
73515;SDS011;61763;51.416;5.442;2023-03-15T10:29:43;6.38;;;2.03;;
73515;SDS011;61763;51.416;5.442;2023-03-15T10:32:15;2.15;;;0.20;;
73515;SDS011;61763;51.416;5.442;2023-03-15T10:34:46;1.10;;;0.10;;
73515;SDS011;61763;51.416;5.442;2023-03-15T10:37:13;3.97;;;1.38;;
73515;SDS011;61763;51.416;5.442;2023-03-15T10:39:39;2.10;;;0.40;;
73515;SDS011;61763;51.416;5.442;2023-03-15T10:42:21;4.45;;;0.30;;
73515;SDS011;61763;51.416;5.442;2023-03-15T10:44:52;3.20;;;0.30;;
73515;SDS011;61763;51.416;5.442;2023-03-15T10:47:18;3.00;;;0.35;;
73515;SDS011;61763;51.416;5.442;2023-03-15T10:49:45;4.60;;;0.90;;
73515;SDS011;61763;51.416;5.442;2023-03-15T10:55:13;1.30;;;0.28;;
73515;SDS011;61763;51.416;5.442;2023-03-15T10:57:53;4.25;;;1.40;;
73515;SDS011;61763;51.416;5.442;2023-03-15T11:00:22;3.88;;;0.77;;
73515;SDS011;61763;51.416;5.442;2023-03-15T11:03:02;5.22;;;1.15;;
73515;SDS011;61763;51.416;5.442;2023-03-15T11:05:43;2.92;;;1.38;;
73515;SDS011;61763;51.416;5.442;2023-03-15T11:08:15;4.75;;;2.15;;
73515;SDS011;61763;51.416;5.442;2023-03-15T11:10:43;2.92;;;0.40;;
73515;SDS011;61763;51.416;5.442;2023-03-15T11:13:20;1.75;;;0.93;;
73515;SDS011;61763;51.416;5.442;2023-03-15T11:15:55;3.47;;;0.20;;
73515;SDS011;61763;51.416;5.442;2023-03-15T11:18:35;2.63;;;0.65;;
73515;SDS011;61763;51.416;5.442;2023-03-15T11:21:07;2.72;;;1.08;;
73515;SDS011;61763;51.416;5.442;2023-03-15T11:23:39;4.63;;;1.02;;
73515;SDS011;61763;51.416;5.442;2023-03-15T11:26:30;3.40;;;0.25;;
73515;SDS011;61763;51.416;5.442;2023-03-15T11:28:58;1.35;;;0.20;;
73515;SDS011;61763;51.416;5.442;2023-03-15T11:31:45;2.10;;;0.82;;
73515;SDS011;61763;51.416;5.442;2023-03-15T11:34:15;3.90;;;0.60;;
73515;SDS011;61763;51.416;5.442;2023-03-15T11:37:00;6.72;;;1.35;;
73515;SDS011;61763;51.416;5.442;2023-03-15T11:39:38;1.55;;;0.10;;
73515;SDS011;61763;51.416;5.442;2023-03-15T11:42:09;4.53;;;0.80;;
73515;SDS011;61763;51.416;5.442;2023-03-15T11:49:53;2.15;;;0.10;;
73515;SDS011;61763;51.416;5.442;2023-03-15T11:52:21;2.97;;;0.60;;
73515;SDS011;61763;51.416;5.442;2023-03-15T11:54:53;3.55;;;0.65;;
73515;SDS011;61763;51.416;5.442;2023-03-15T12:05:48;2.38;;;0.90;;
73515;SDS011;61763;51.416;5.442;2023-03-15T12:10:58;1.83;;;0.10;;
73515;SDS011;61763;51.416;5.442;2023-03-15T12:13:26;2.65;;;0.73;;
73515;SDS011;61763;51.416;5.442;2023-03-15T12:15:53;1.80;;;0.47;;
73515;SDS011;61763;51.416;5.442;2023-03-15T12:18:20;1.70;;;0.60;;
73515;SDS011;61763;51.416;5.442;2023-03-15T12:21:11;2.13;;;0.55;;
73515;SDS011;61763;51.416;5.442;2023-03-15T12:23:55;2.15;;;0.73;;
73515;SDS011;61763;51.416;5.442;2023-03-15T12:29:26;1.48;;;0.20;;
73515;SDS011;61763;51.416;5.442;2023-03-15T12:34:29;2.47;;;0.77;;
73515;SDS011;61763;51.416;5.442;2023-03-15T12:37:04;3.50;;;0.80;;
73515;SDS011;61763;51.416;5.442;2023-03-15T12:42:10;2.85;;;0.20;;
73515;SDS011;61763;51.416;5.442;2023-03-15T12:47:45;1.50;;;0.60;;
73515;SDS011;61763;51.416;5.442;2023-03-15T12:55:51;0.88;;;0.10;;
73515;SDS011;61763;51.416;5.442;2023-03-15T12:58:18;2.60;;;0.20;;
73515;SDS011;61763;51.416;5.442;2023-03-15T13:00:49;1.85;;;1.00;;
73515;SDS011;61763;51.416;5.442;2023-03-15T13:03:18;0.98;;;0.13;;
73515;SDS011;61763;51.416;5.442;2023-03-15T13:16:57;1.00;;;0.20;;
73515;SDS011;61763;51.416;5.442;2023-03-15T13:19:29;1.30;;;0.13;;
73515;SDS011;61763;51.416;5.442;2023-03-15T13:35:52;1.85;;;0.63;;
73515;SDS011;61763;51.416;5.442;2023-03-15T13:40:48;2.38;;;0.68;;
73515;SDS011;61763;51.416;5.442;2023-03-15T13:43:13;3.05;;;0.80;;
73515;SDS011;61763;51.416;5.442;2023-03-15T13:45:42;4.65;;;0.25;;
73515;SDS011;61763;51.416;5.442;2023-03-15T13:48:08;2.00;;;0.57;;
73515;SDS011;61763;51.416;5.442;2023-03-15T13:50:34;1.95;;;0.63;;
73515;SDS011;61763;51.416;5.442;2023-03-15T13:53:00;2.83;;;0.30;;
73515;SDS011;61763;51.416;5.442;2023-03-15T13:55:28;3.13;;;0.70;;
73515;SDS011;61763;51.416;5.442;2023-03-15T13:57:58;3.42;;;0.57;;
73515;SDS011;61763;51.416;5.442;2023-03-15T14:02:59;1.77;;;0.55;;
73515;SDS011;61763;51.416;5.442;2023-03-15T14:05:28;2.67;;;0.10;;
73515;SDS011;61763;51.416;5.442;2023-03-15T14:08:01;0.95;;;0.22;;
73515;SDS011;61763;51.416;5.442;2023-03-15T14:10:33;2.58;;;0.10;;
73515;SDS011;61763;51.416;5.442;2023-03-15T14:15:48;3.35;;;0.50;;
73515;SDS011;61763;51.416;5.442;2023-03-15T14:18:15;2.40;;;0.52;;
73515;SDS011;61763;51.416;5.442;2023-03-15T14:20:46;3.92;;;0.93;;
73515;SDS011;61763;51.416;5.442;2023-03-15T14:23:24;4.03;;;0.98;;
73515;SDS011;61763;51.416;5.442;2023-03-15T14:25:56;1.85;;;0.65;;
73515;SDS011;61763;51.416;5.442;2023-03-15T14:28:30;3.35;;;1.20;;
73515;SDS011;61763;51.416;5.442;2023-03-15T14:30:56;1.30;;;0.80;;
73515;SDS011;61763;51.416;5.442;2023-03-15T14:35:57;0.90;;;0.20;;
73515;SDS011;61763;51.416;5.442;2023-03-15T14:38:24;1.88;;;0.77;;
73515;SDS011;61763;51.416;5.442;2023-03-15T14:41:06;4.28;;;0.70;;
73515;SDS011;61763;51.416;5.442;2023-03-15T14:43:35;1.33;;;0.10;;
73515;SDS011;61763;51.416;5.442;2023-03-15T14:46:00;2.55;;;1.40;;
73515;SDS011;61763;51.416;5.442;2023-03-15T14:48:26;1.63;;;0.85;;
73515;SDS011;61763;51.416;5.442;2023-03-15T14:50:54;2.00;;;0.70;;
73515;SDS011;61763;51.416;5.442;2023-03-15T14:53:21;3.25;;;0.68;;
73515;SDS011;61763;51.416;5.442;2023-03-15T14:55:48;1.67;;;0.20;;
73515;SDS011;61763;51.416;5.442;2023-03-15T14:58:18;1.20;;;0.20;;
73515;SDS011;61763;51.416;5.442;2023-03-15T15:00:46;2.90;;;1.00;;
73515;SDS011;61763;51.416;5.442;2023-03-15T15:03:24;2.03;;;0.20;;
73515;SDS011;61763;51.416;5.442;2023-03-15T15:05:53;1.75;;;0.70;;
73515;SDS011;61763;51.416;5.442;2023-03-15T15:08:19;1.73;;;0.15;;
73515;SDS011;61763;51.416;5.442;2023-03-15T15:10:49;1.38;;;0.10;;
73515;SDS011;61763;51.416;5.442;2023-03-15T15:13:19;3.85;;;0.45;;
73515;SDS011;61763;51.416;5.442;2023-03-15T15:15:49;4.43;;;1.08;;
73515;SDS011;61763;51.416;5.442;2023-03-15T15:18:15;1.75;;;1.00;;
73515;SDS011;61763;51.416;5.442;2023-03-15T15:20:41;2.85;;;0.50;;
73515;SDS011;61763;51.416;5.442;2023-03-15T15:23:17;1.42;;;0.30;;
73515;SDS011;61763;51.416;5.442;2023-03-15T15:25:44;2.20;;;0.75;;
73515;SDS011;61763;51.416;5.442;2023-03-15T15:28:12;1.70;;;0.28;;
73515;SDS011;61763;51.416;5.442;2023-03-15T15:30:38;1.73;;;0.30;;
73515;SDS011;61763;51.416;5.442;2023-03-15T15:33:04;1.92;;;0.38;;
73515;SDS011;61763;51.416;5.442;2023-03-15T15:35:29;3.60;;;0.82;;
73515;SDS011;61763;51.416;5.442;2023-03-15T15:37:55;3.22;;;0.35;;
73515;SDS011;61763;51.416;5.442;2023-03-15T15:40:25;1.52;;;0.30;;
73515;SDS011;61763;51.416;5.442;2023-03-15T15:42:53;2.00;;;0.30;;
73515;SDS011;61763;51.416;5.442;2023-03-15T15:45:19;2.10;;;1.40;;
73515;SDS011;61763;51.416;5.442;2023-03-15T15:47:46;3.22;;;0.35;;
73515;SDS011;61763;51.416;5.442;2023-03-15T15:50:12;2.00;;;0.47;;
73515;SDS011;61763;51.416;5.442;2023-03-15T15:52:41;2.33;;;0.73;;
73515;SDS011;61763;51.416;5.442;2023-03-15T15:55:10;2.30;;;1.05;;
73515;SDS011;61763;51.416;5.442;2023-03-15T15:57:40;3.10;;;1.05;;
73515;SDS011;61763;51.416;5.442;2023-03-15T16:00:10;2.67;;;1.05;;
73515;SDS011;61763;51.416;5.442;2023-03-15T16:02:38;3.97;;;0.40;;
73515;SDS011;61763;51.416;5.442;2023-03-15T16:05:04;2.05;;;0.30;;
73515;SDS011;61763;51.416;5.442;2023-03-15T16:07:29;4.40;;;1.23;;
73515;SDS011;61763;51.416;5.442;2023-03-15T16:09:56;2.40;;;0.90;;
73515;SDS011;61763;51.416;5.442;2023-03-15T16:12:23;1.45;;;0.40;;
73515;SDS011;61763;51.416;5.442;2023-03-15T16:14:49;2.78;;;1.02;;
73515;SDS011;61763;51.416;5.442;2023-03-15T16:17:19;3.03;;;0.45;;
73515;SDS011;61763;51.416;5.442;2023-03-15T16:19:46;2.58;;;1.23;;
73515;SDS011;61763;51.416;5.442;2023-03-15T16:22:16;1.73;;;0.30;;
73515;SDS011;61763;51.416;5.442;2023-03-15T16:24:44;1.70;;;0.32;;
73515;SDS011;61763;51.416;5.442;2023-03-15T16:27:13;3.08;;;1.45;;
73515;SDS011;61763;51.416;5.442;2023-03-15T16:29:43;1.90;;;1.02;;
73515;SDS011;61763;51.416;5.442;2023-03-15T16:32:12;2.40;;;0.80;;
73515;SDS011;61763;51.416;5.442;2023-03-15T16:34:38;1.88;;;1.10;;
73515;SDS011;61763;51.416;5.442;2023-03-15T16:37:04;3.75;;;1.42;;